sensor_id;sensor_type;location;lat;lon;timestamp;P1;durP1;ratioP1;P2;durP2;ratioP2
43154;SDS011;34212;51.018;13.586;2023-04-27T05:03:38;4.93;;;3.33;;
43154;SDS011;34212;51.018;13.586;2023-04-27T05:08:40;8.82;;;3.45;;
43154;SDS011;34212;51.018;13.586;2023-04-27T05:13:42;7.20;;;3.33;;
43154;SDS011;34212;51.018;13.586;2023-04-27T05:18:43;7.97;;;3.60;;
43154;SDS011;34212;51.018;13.586;2023-04-27T05:23:45;6.00;;;3.17;;
43154;SDS011;34212;51.018;13.586;2023-04-27T05:28:47;6.88;;;3.72;;
43154;SDS011;34212;51.018;13.586;2023-04-27T05:33:49;9.35;;;4.25;;
43154;SDS011;34212;51.018;13.586;2023-04-27T05:38:51;5.22;;;3.70;;
43154;SDS011;34212;51.018;13.586;2023-04-27T05:43:52;9.23;;;4.30;;
43154;SDS011;34212;51.018;13.586;2023-04-27T05:48:54;10.85;;;4.50;;
43154;SDS011;34212;51.018;13.586;2023-04-27T05:53:55;12.43;;;4.20;;
43154;SDS011;34212;51.018;13.586;2023-04-27T05:58:57;7.88;;;3.95;;
43154;SDS011;34212;51.018;13.586;2023-04-27T06:04:01;8.63;;;3.60;;
43154;SDS011;34212;51.018;13.586;2023-04-27T06:09:03;8.40;;;3.75;;
43154;SDS011;34212;51.018;13.586;2023-04-27T06:14:04;6.35;;;4.28;;
43154;SDS011;34212;51.018;13.586;2023-04-27T06:19:06;5.00;;;4.00;;
43154;SDS011;34212;51.018;13.586;2023-04-27T06:24:07;7.38;;;3.83;;
43154;SDS011;34212;51.018;13.586;2023-04-27T06:29:09;9.93;;;4.32;;
43154;SDS011;34212;51.018;13.586;2023-04-27T06:34:10;6.15;;;3.88;;
43154;SDS011;34212;51.018;13.586;2023-04-27T06:39:12;9.73;;;4.45;;
43154;SDS011;34212;51.018;13.586;2023-04-27T06:44:14;9.55;;;4.00;;
43154;SDS011;34212;51.018;13.586;2023-04-27T06:49:15;8.60;;;4.35;;
43154;SDS011;34212;51.018;13.586;2023-04-27T06:54:17;9.07;;;5.03;;
43154;SDS011;34212;51.018;13.586;2023-04-27T06:59:19;6.18;;;4.53;;
43154;SDS011;34212;51.018;13.586;2023-04-27T07:04:20;9.15;;;4.43;;
43154;SDS011;34212;51.018;13.586;2023-04-27T07:09:22;8.38;;;4.05;;
43154;SDS011;34212;51.018;13.586;2023-04-27T07:14:28;9.57;;;4.30;;
43154;SDS011;34212;51.018;13.586;2023-04-27T07:19:29;11.70;;;5.03;;
43154;SDS011;34212;51.018;13.586;2023-04-27T07:24:31;9.75;;;4.47;;
43154;SDS011;34212;51.018;13.586;2023-04-27T07:29:32;9.07;;;4.50;;
43154;SDS011;34212;51.018;13.586;2023-04-27T07:34:34;9.93;;;4.82;;
43154;SDS011;34212;51.018;13.586;2023-04-27T07:39:49;6.78;;;4.32;;
43154;SDS011;34212;51.018;13.586;2023-04-27T07:44:54;9.68;;;4.47;;
43154;SDS011;34212;51.018;13.586;2023-04-27T07:49:57;9.82;;;4.53;;
43154;SDS011;34212;51.018;13.586;2023-04-27T07:54:58;7.93;;;4.72;;
43154;SDS011;34212;51.018;13.586;2023-04-27T08:00:00;9.02;;;5.25;;
43154;SDS011;34212;51.018;13.586;2023-04-27T08:05:12;9.13;;;4.72;;
43154;SDS011;34212;51.018;13.586;2023-04-27T08:10:15;10.48;;;5.38;;
43154;SDS011;34212;51.018;13.586;2023-04-27T08:15:16;8.30;;;4.22;;
43154;SDS011;34212;51.018;13.586;2023-04-27T08:20:18;9.20;;;4.90;;
43154;SDS011;34212;51.018;13.586;2023-04-27T08:25:20;10.13;;;4.47;;
43154;SDS011;34212;51.018;13.586;2023-04-27T08:30:21;8.82;;;4.43;;
43154;SDS011;34212;51.018;13.586;2023-04-27T08:35:23;5.05;;;4.30;;
43154;SDS011;34212;51.018;13.586;2023-04-27T08:40:24;8.40;;;4.30;;
43154;SDS011;34212;51.018;13.586;2023-04-27T08:45:26;8.18;;;3.80;;
43154;SDS011;34212;51.018;13.586;2023-04-27T08:50:28;6.78;;;3.92;;
43154;SDS011;34212;51.018;13.586;2023-04-27T08:55:31;7.65;;;4.32;;
43154;SDS011;34212;51.018;13.586;2023-04-27T09:00:39;9.68;;;5.10;;
43154;SDS011;34212;51.018;13.586;2023-04-27T09:05:47;8.43;;;4.35;;
43154;SDS011;34212;51.018;13.586;2023-04-27T09:11:04;7.22;;;4.00;;
43154;SDS011;34212;51.018;13.586;2023-04-27T09:16:06;11.02;;;5.32;;
43154;SDS011;34212;51.018;13.586;2023-04-27T09:21:08;9.90;;;4.97;;
43154;SDS011;34212;51.018;13.586;2023-04-27T09:26:17;13.80;;;4.88;;
43154;SDS011;34212;51.018;13.586;2023-04-27T09:31:29;5.93;;;4.28;;
43154;SDS011;34212;51.018;13.586;2023-04-27T09:36:33;8.90;;;5.30;;
43154;SDS011;34212;51.018;13.586;2023-04-27T09:41:34;8.13;;;5.28;;
43154;SDS011;34212;51.018;13.586;2023-04-27T09:46:36;7.23;;;5.33;;
43154;SDS011;34212;51.018;13.586;2023-04-27T09:51:38;7.17;;;4.73;;
43154;SDS011;34212;51.018;13.586;2023-04-27T10:02:04;10.30;;;5.13;;
43154;SDS011;34212;51.018;13.586;2023-04-27T10:07:25;9.25;;;4.28;;
43154;SDS011;34212;51.018;13.586;2023-04-27T10:12:36;9.68;;;5.03;;
43154;SDS011;34212;51.018;13.586;2023-04-27T10:17:38;10.18;;;5.70;;
43154;SDS011;34212;51.018;13.586;2023-04-27T10:22:47;8.77;;;5.68;;
43154;SDS011;34212;51.018;13.586;2023-04-27T10:27:53;7.47;;;5.75;;
43154;SDS011;34212;51.018;13.586;2023-04-27T10:33:03;8.93;;;5.03;;
43154;SDS011;34212;51.018;13.586;2023-04-27T10:38:09;7.15;;;5.35;;
43154;SDS011;34212;51.018;13.586;2023-04-27T10:43:16;8.85;;;5.75;;
43154;SDS011;34212;51.018;13.586;2023-04-27T10:48:18;9.73;;;5.68;;
43154;SDS011;34212;51.018;13.586;2023-04-27T10:53:19;10.25;;;5.68;;
43154;SDS011;34212;51.018;13.586;2023-04-27T10:58:21;9.50;;;5.90;;
43154;SDS011;34212;51.018;13.586;2023-04-27T11:03:23;10.95;;;5.63;;
43154;SDS011;34212;51.018;13.586;2023-04-27T11:08:25;8.43;;;5.43;;
43154;SDS011;34212;51.018;13.586;2023-04-27T11:13:27;11.48;;;5.30;;
43154;SDS011;34212;51.018;13.586;2023-04-27T11:18:29;9.30;;;5.80;;
43154;SDS011;34212;51.018;13.586;2023-04-27T11:23:32;15.63;;;5.30;;
43154;SDS011;34212;51.018;13.586;2023-04-27T11:28:40;7.50;;;5.30;;
43154;SDS011;34212;51.018;13.586;2023-04-27T11:33:48;9.38;;;6.03;;
43154;SDS011;34212;51.018;13.586;2023-04-27T11:38:56;7.97;;;6.13;;
43154;SDS011;34212;51.018;13.586;2023-04-27T11:44:02;11.73;;;6.18;;
43154;SDS011;34212;51.018;13.586;2023-04-27T11:49:06;7.70;;;5.60;;
43154;SDS011;34212;51.018;13.586;2023-04-27T11:54:11;10.02;;;6.20;;
43154;SDS011;34212;51.018;13.586;2023-04-27T11:59:17;8.80;;;5.47;;
43154;SDS011;34212;51.018;13.586;2023-04-27T12:04:20;9.82;;;6.07;;
43154;SDS011;34212;51.018;13.586;2023-04-27T12:09:22;9.97;;;6.00;;
43154;SDS011;34212;51.018;13.586;2023-04-27T12:14:24;10.50;;;6.00;;
43154;SDS011;34212;51.018;13.586;2023-04-27T12:19:26;7.27;;;6.00;;
43154;SDS011;34212;51.018;13.586;2023-04-27T12:24:27;16.27;;;7.90;;
43154;SDS011;34212;51.018;13.586;2023-04-27T12:29:28;11.23;;;7.05;;
43154;SDS011;34212;51.018;13.586;2023-04-27T12:34:32;7.40;;;6.57;;
43154;SDS011;34212;51.018;13.586;2023-04-27T12:39:34;7.38;;;6.25;;
43154;SDS011;34212;51.018;13.586;2023-04-27T12:44:36;8.93;;;6.63;;
43154;SDS011;34212;51.018;13.586;2023-04-27T12:49:37;10.10;;;6.80;;
43154;SDS011;34212;51.018;13.586;2023-04-27T12:54:39;10.13;;;7.00;;
43154;SDS011;34212;51.018;13.586;2023-04-27T12:59:40;7.95;;;5.93;;
43154;SDS011;34212;51.018;13.586;2023-04-27T13:04:42;10.00;;;6.60;;
43154;SDS011;34212;51.018;13.586;2023-04-27T13:09:43;12.93;;;6.27;;
43154;SDS011;34212;51.018;13.586;2023-04-27T13:14:45;10.60;;;6.63;;
43154;SDS011;34212;51.018;13.586;2023-04-27T13:19:46;8.75;;;6.55;;
43154;SDS011;34212;51.018;13.586;2023-04-27T13:24:48;10.57;;;7.25;;
43154;SDS011;34212;51.018;13.586;2023-04-27T13:29:49;9.02;;;6.55;;
43154;SDS011;34212;51.018;13.586;2023-04-27T13:34:51;8.43;;;5.93;;
43154;SDS011;34212;51.018;13.586;2023-04-27T13:39:52;8.17;;;6.50;;
43154;SDS011;34212;51.018;13.586;2023-04-27T13:44:54;8.53;;;6.43;;
43154;SDS011;34212;51.018;13.586;2023-04-27T13:49:56;10.80;;;7.65;;
43154;SDS011;34212;51.018;13.586;2023-04-27T13:54:58;9.40;;;7.37;;
43154;SDS011;34212;51.018;13.586;2023-04-27T13:59:59;10.77;;;7.30;;
43154;SDS011;34212;51.018;13.586;2023-04-27T14:05:02;9.23;;;8.23;;
43154;SDS011;34212;51.018;13.586;2023-04-27T14:10:04;11.07;;;7.72;;
43154;SDS011;34212;51.018;13.586;2023-04-27T14:20:08;8.68;;;7.28;;
43154;SDS011;34212;51.018;13.586;2023-04-27T14:25:10;8.50;;;7.55;;
43154;SDS011;34212;51.018;13.586;2023-04-27T14:30:11;12.63;;;8.05;;
43154;SDS011;34212;51.018;13.586;2023-04-27T14:35:13;12.97;;;6.87;;
43154;SDS011;34212;51.018;13.586;2023-04-27T14:40:15;10.07;;;6.53;;
43154;SDS011;34212;51.018;13.586;2023-04-27T14:45:16;11.67;;;7.37;;
43154;SDS011;34212;51.018;13.586;2023-04-27T14:50:19;9.63;;;6.82;;
43154;SDS011;34212;51.018;13.586;2023-04-27T14:55:20;9.50;;;7.00;;
43154;SDS011;34212;51.018;13.586;2023-04-27T15:00:22;12.43;;;6.70;;
43154;SDS011;34212;51.018;13.586;2023-04-27T15:05:23;9.27;;;6.15;;
43154;SDS011;34212;51.018;13.586;2023-04-27T15:10:25;10.20;;;6.30;;
43154;SDS011;34212;51.018;13.586;2023-04-27T15:15:27;9.03;;;6.13;;
43154;SDS011;34212;51.018;13.586;2023-04-27T15:20:28;11.30;;;6.40;;
43154;SDS011;34212;51.018;13.586;2023-04-27T15:25:30;10.80;;;7.70;;
43154;SDS011;34212;51.018;13.586;2023-04-27T15:30:32;9.27;;;6.20;;
43154;SDS011;34212;51.018;13.586;2023-04-27T15:35:34;9.57;;;5.93;;
43154;SDS011;34212;51.018;13.586;2023-04-27T15:40:38;7.97;;;6.43;;
43154;SDS011;34212;51.018;13.586;2023-04-27T15:45:40;11.87;;;7.43;;
43154;SDS011;34212;51.018;13.586;2023-04-27T15:50:43;14.43;;;7.60;;
43154;SDS011;34212;51.018;13.586;2023-04-27T15:55:45;11.90;;;7.72;;
43154;SDS011;34212;51.018;13.586;2023-04-27T16:00:46;9.13;;;7.13;;
43154;SDS011;34212;51.018;13.586;2023-04-27T16:05:48;10.82;;;7.53;;
43154;SDS011;34212;51.018;13.586;2023-04-27T16:15:52;10.73;;;8.25;;
43154;SDS011;34212;51.018;13.586;2023-04-27T16:20:54;12.25;;;7.97;;
43154;SDS011;34212;51.018;13.586;2023-04-27T16:25:55;11.93;;;7.07;;
43154;SDS011;34212;51.018;13.586;2023-04-27T16:30:57;12.25;;;7.00;;
43154;SDS011;34212;51.018;13.586;2023-04-27T16:35:58;10.53;;;6.70;;
43154;SDS011;34212;51.018;13.586;2023-04-27T16:41:00;8.35;;;6.85;;
43154;SDS011;34212;51.018;13.586;2023-04-27T16:46:01;9.75;;;6.53;;
43154;SDS011;34212;51.018;13.586;2023-04-27T16:51:03;10.00;;;6.40;;
43154;SDS011;34212;51.018;13.586;2023-04-27T16:56:05;17.90;;;15.13;;
43154;SDS011;34212;51.018;13.586;2023-04-27T17:01:07;14.75;;;8.30;;
43154;SDS011;34212;51.018;13.586;2023-04-27T17:06:08;9.73;;;6.75;;
43154;SDS011;34212;51.018;13.586;2023-04-27T17:11:10;8.77;;;6.72;;
43154;SDS011;34212;51.018;13.586;2023-04-27T17:16:12;11.97;;;8.13;;
43154;SDS011;34212;51.018;13.586;2023-04-27T17:21:16;12.88;;;7.78;;
43154;SDS011;34212;51.018;13.586;2023-04-27T17:26:18;12.20;;;8.70;;
43154;SDS011;34212;51.018;13.586;2023-04-27T17:31:21;9.68;;;7.05;;
43154;SDS011;34212;51.018;13.586;2023-04-27T17:36:23;9.27;;;6.70;;
43154;SDS011;34212;51.018;13.586;2023-04-27T17:41:24;10.63;;;5.63;;
43154;SDS011;34212;51.018;13.586;2023-04-27T17:46:26;8.63;;;6.88;;
43154;SDS011;34212;51.018;13.586;2023-04-27T17:56:57;10.10;;;7.28;;
43154;SDS011;34212;51.018;13.586;2023-04-27T18:01:59;13.20;;;10.10;;
43154;SDS011;34212;51.018;13.586;2023-04-27T18:07:01;9.63;;;7.53;;
43154;SDS011;34212;51.018;13.586;2023-04-27T18:12:03;13.15;;;7.75;;
43154;SDS011;34212;51.018;13.586;2023-04-27T18:17:10;9.05;;;7.30;;
43154;SDS011;34212;51.018;13.586;2023-04-27T18:22:12;13.00;;;8.77;;
43154;SDS011;34212;51.018;13.586;2023-04-27T18:27:13;12.70;;;8.85;;
43154;SDS011;34212;51.018;13.586;2023-04-27T18:32:18;13.43;;;7.75;;
43154;SDS011;34212;51.018;13.586;2023-04-27T18:37:20;9.45;;;7.10;;
43154;SDS011;34212;51.018;13.586;2023-04-27T18:42:21;13.23;;;8.45;;
43154;SDS011;34212;51.018;13.586;2023-04-27T18:47:23;11.43;;;8.17;;
43154;SDS011;34212;51.018;13.586;2023-04-27T18:52:25;10.97;;;8.00;;
43154;SDS011;34212;51.018;13.586;2023-04-27T18:57:27;10.00;;;6.82;;
43154;SDS011;34212;51.018;13.586;2023-04-27T19:02:28;10.60;;;6.70;;
43154;SDS011;34212;51.018;13.586;2023-04-27T19:07:30;12.05;;;7.80;;
43154;SDS011;34212;51.018;13.586;2023-04-27T19:12:32;13.97;;;7.77;;
43154;SDS011;34212;51.018;13.586;2023-04-27T19:17:34;18.88;;;10.90;;
43154;SDS011;34212;51.018;13.586;2023-04-27T19:22:35;13.43;;;8.68;;
43154;SDS011;34212;51.018;13.586;2023-04-27T19:27:37;11.05;;;7.03;;
43154;SDS011;34212;51.018;13.586;2023-04-27T19:32:38;12.57;;;7.05;;
43154;SDS011;34212;51.018;13.586;2023-04-27T19:37:40;12.43;;;7.35;;
43154;SDS011;34212;51.018;13.586;2023-04-27T19:42:42;9.43;;;6.90;;
43154;SDS011;34212;51.018;13.586;2023-04-27T19:47:43;11.00;;;6.80;;
43154;SDS011;34212;51.018;13.586;2023-04-27T19:52:45;12.40;;;7.05;;
43154;SDS011;34212;51.018;13.586;2023-04-27T19:57:47;12.73;;;8.90;;
43154;SDS011;34212;51.018;13.586;2023-04-27T20:02:49;28.35;;;16.17;;
43154;SDS011;34212;51.018;13.586;2023-04-27T20:07:53;41.53;;;20.63;;
43154;SDS011;34212;51.018;13.586;2023-04-27T20:12:55;32.45;;;19.42;;
43154;SDS011;34212;51.018;13.586;2023-04-27T20:17:57;24.20;;;13.52;;
43154;SDS011;34212;51.018;13.586;2023-04-27T20:22:59;16.90;;;10.48;;
43154;SDS011;34212;51.018;13.586;2023-04-27T20:28:00;16.80;;;10.38;;
43154;SDS011;34212;51.018;13.586;2023-04-27T20:33:02;12.70;;;9.15;;
43154;SDS011;34212;51.018;13.586;2023-04-27T20:38:04;15.07;;;10.75;;
43154;SDS011;34212;51.018;13.586;2023-04-27T20:43:05;16.40;;;10.80;;
43154;SDS011;34212;51.018;13.586;2023-04-27T20:48:08;17.08;;;11.80;;
43154;SDS011;34212;51.018;13.586;2023-04-27T20:53:11;13.82;;;10.98;;
43154;SDS011;34212;51.018;13.586;2023-04-27T20:58:13;18.63;;;10.63;;
43154;SDS011;34212;51.018;13.586;2023-04-27T21:03:14;12.57;;;9.35;;
43154;SDS011;34212;51.018;13.586;2023-04-27T21:08:16;13.23;;;8.85;;
43154;SDS011;34212;51.018;13.586;2023-04-27T21:13:18;14.27;;;9.05;;
43154;SDS011;34212;51.018;13.586;2023-04-27T21:18:19;14.90;;;9.18;;
43154;SDS011;34212;51.018;13.586;2023-04-27T21:23:32;12.15;;;8.13;;
43154;SDS011;34212;51.018;13.586;2023-04-27T21:28:35;12.65;;;8.57;;
43154;SDS011;34212;51.018;13.586;2023-04-27T21:33:37;12.95;;;8.18;;
43154;SDS011;34212;51.018;13.586;2023-04-27T21:38:38;12.98;;;8.77;;
43154;SDS011;34212;51.018;13.586;2023-04-27T21:43:40;15.63;;;8.75;;
43154;SDS011;34212;51.018;13.586;2023-04-27T21:48:42;17.63;;;9.07;;
43154;SDS011;34212;51.018;13.586;2023-04-27T21:53:43;12.13;;;8.55;;
43154;SDS011;34212;51.018;13.586;2023-04-27T21:58:45;13.57;;;9.55;;
